Time;durP1;ratioP1;P1;durP2;ratioP2;P2;SDS_P1;SDS_P2;PMS_P1;PMS_P2;Temp;Humidity;BMP_temperature;BMP_pressure;BME280_temperature;BME280_humidity;BME280_pressure;Samples;Min_cycle;Max_cycle;Signal;HPM_P1;HPM_P2
2022/04/09 00:01:54;;;;;;;0.10;0.10;;;;;;;-0.28;100.00;94253.66;5012232;28;24448;-74
2022/04/09 00:04:20;;;;;;;0.03;0.03;;;;;;;-0.15;100.00;94255.66;5012024;28;24845;-74
2022/04/09 00:06:46;;;;;;;0.00;0.00;;;;;;;-0.23;100.00;94276.34;5012332;28;24440;-75
2022/04/09 00:09:14;;;;;;;0.00;0.00;;;;;;;-0.35;100.00;94298.09;5011498;28;24794;-75
2022/04/09 00:11:41;;;;;;;0.60;0.00;;;;;;;-0.35;100.00;94313.34;5011752;28;24446;-75
2022/04/09 00:14:07;;;;;;;0.00;0.00;;;;;;;-0.35;100.00;94348.94;5011984;28;24463;-75
2022/04/09 00:16:34;;;;;;;0.17;0.10;;;;;;;-0.38;100.00;94344.00;5011532;28;24440;-75
2022/04/09 00:19:00;;;;;;;0.20;0.10;;;;;;;-0.25;100.00;94357.03;5011851;28;24813;-74
2022/04/09 00:21:29;;;;;;;0.00;0.00;;;;;;;-0.12;100.00;94354.75;5011154;28;25005;-75
2022/04/09 00:23:55;;;;;;;0.40;0.10;;;;;;;-0.17;100.00;94352.44;5011432;28;24499;-74
2022/04/09 00:26:23;;;;;;;0.17;0.10;;;;;;;-0.19;100.00;94354.19;5011663;28;24439;-75
2022/04/09 00:28:50;;;;;;;0.20;0.10;;;;;;;-0.31;100.00;94364.91;5011805;28;24520;-74
2022/04/09 00:31:16;;;;;;;0.40;0.10;;;;;;;-0.34;100.00;94370.94;5011538;28;24443;-74
2022/04/09 00:33:43;;;;;;;0.10;0.10;;;;;;;-0.17;100.00;94385.50;5011554;28;24806;-75
2022/04/09 00:36:09;;;;;;;0.20;0.10;;;;;;;-0.41;100.00;94396.72;5011437;28;25032;-75
2022/04/09 00:38:36;;;;;;;0.10;0.10;;;;;;;-0.39;100.00;94416.13;5011350;28;24440;-75
2022/04/09 00:41:02;;;;;;;0.10;0.10;;;;;;;-0.41;100.00;94428.06;5010841;28;24467;-75
2022/04/09 00:43:30;;;;;;;0.30;0.10;;;;;;;-0.33;100.00;94431.13;5011448;28;24432;-75
2022/04/09 00:45:56;;;;;;;0.00;0.00;;;;;;;-0.35;100.00;94450.72;5011540;28;24460;-75
2022/04/09 00:48:24;;;;;;;0.10;0.10;;;;;;;-0.21;100.00;94467.13;5011160;28;24444;-75
2022/04/09 00:50:51;;;;;;;0.20;0.10;;;;;;;-0.27;100.00;94474.09;5010859;28;24475;-75
2022/04/09 00:53:20;;;;;;;0.63;0.20;;;;;;;-0.14;100.00;94483.81;5011263;28;24802;-75
2022/04/09 00:58:34;;;;;;;0.10;0.10;;;;;;;-0.15;100.00;94505.88;5010970;28;24451;-75
2022/04/09 01:01:02;;;;;;;1.60;0.30;;;;;;;-0.21;100.00;94512.94;4994906;28;24902;-75
2022/04/09 01:03:29;;;;;;;0.30;0.10;;;;;;;-0.30;100.00;94526.84;5011083;28;24855;-75
2022/04/09 01:05:56;;;;;;;0.50;0.20;;;;;;;-0.27;100.00;94534.34;5010892;28;24439;-74
2022/04/09 01:08:22;;;;;;;0.90;0.30;;;;;;;-0.13;100.00;94543.97;5010473;28;24464;-75
2022/04/09 01:10:50;;;;;;;0.50;0.20;;;;;;;-0.11;100.00;94552.34;5010932;28;24494;-75
2022/04/09 01:13:17;;;;;;;0.20;0.10;;;;;;;0.06;100.00;94554.22;5010681;28;24472;-75
2022/04/09 01:15:45;;;;;;;0.20;0.10;;;;;;;-0.06;100.00;94555.56;5010468;28;24961;-75
2022/04/09 01:18:11;;;;;;;0.20;0.20;;;;;;;-0.12;100.00;94549.00;5010709;28;24444;-74
2022/04/09 01:20:38;;;;;;;0.47;0.20;;;;;;;-0.06;100.00;94556.38;5010465;28;24556;-74
2022/04/09 01:23:06;;;;;;;0.38;0.30;;;;;;;-0.07;100.00;94553.91;5010438;28;24440;-75
2022/04/09 01:25:32;;;;;;;0.57;0.40;;;;;;;-0.15;100.00;94561.88;5010741;28;24441;-75
2022/04/09 01:27:59;;;;;;;0.22;0.22;;;;;;;-0.13;100.00;94580.44;5010670;28;24436;-75
2022/04/09 01:30:25;;;;;;;0.90;0.40;;;;;;;-0.14;100.00;94586.41;5010655;28;24436;-75
2022/04/09 01:32:52;;;;;;;0.30;0.22;;;;;;;-0.05;100.00;94590.28;5010499;28;24962;-74
2022/04/09 01:35:18;;;;;;;0.75;0.40;;;;;;;-0.13;100.00;94593.16;5010176;28;24444;-75
2022/04/09 01:37:44;;;;;;;1.08;0.50;;;;;;;-0.12;100.00;94607.53;5010453;28;24439;-75
2022/04/09 01:40:12;;;;;;;0.82;0.38;;;;;;;0.03;100.00;94611.16;5010176;28;24464;-75
2022/04/09 01:42:39;;;;;;;0.98;0.50;;;;;;;0.11;100.00;94616.81;5010699;28;24437;-74
2022/04/09 01:45:07;;;;;;;1.20;0.50;;;;;;;0.23;100.00;94625.66;5010298;28;24512;-75
2022/04/09 01:47:34;;;;;;;0.63;0.30;;;;;;;0.38;100.00;94635.22;5010005;28;24440;-75
2022/04/09 01:50:00;;;;;;;0.82;0.47;;;;;;;0.26;100.00;94637.41;5010169;28;25003;-75
2022/04/09 01:52:27;;;;;;;0.98;0.50;;;;;;;0.28;100.00;94648.38;5010074;28;24441;-75
2022/04/09 01:54:53;;;;;;;0.52;0.43;;;;;;;0.44;100.00;94655.31;5010481;28;24440;-75
2022/04/09 01:57:21;;;;;;;0.77;0.65;;;;;;;0.62;100.00;94660.53;5010303;28;24439;-75
2022/04/09 01:59:47;;;;;;;0.85;0.60;;;;;;;0.55;100.00;94670.16;5010000;28;24468;-75
2022/04/09 02:02:14;;;;;;;1.80;0.80;;;;;;;0.61;100.00;94672.47;5009794;28;24841;-75
2022/04/09 02:04:40;;;;;;;1.98;0.68;;;;;;;0.63;100.00;94680.03;5010512;28;24455;-75
2022/04/09 02:07:07;;;;;;;1.13;0.77;;;;;;;0.59;100.00;94688.69;5010268;28;24449;-74
2022/04/09 02:09:33;;;;;;;1.10;0.60;;;;;;;0.52;100.00;94690.69;5009883;28;24428;-74
2022/04/09 02:12:00;;;;;;;0.77;0.60;;;;;;;0.47;100.00;94690.84;5010090;28;25043;-74
2022/04/09 02:14:27;;;;;;;1.25;0.65;;;;;;;0.33;100.00;94697.41;5010205;28;24443;-75
2022/04/09 02:16:54;;;;;;;0.93;0.60;;;;;;;0.32;100.00;94700.84;5009883;28;24443;-75
2022/04/09 02:19:20;;;;;;;0.57;0.57;;;;;;;0.36;100.00;94699.81;5010007;28;24502;-75
2022/04/09 02:21:47;;;;;;;1.70;0.60;;;;;;;0.40;100.00;94714.09;5010070;28;24440;-75
2022/04/09 02:24:13;;;;;;;0.93;0.50;;;;;;;0.48;100.00;94717.16;5009756;28;25004;-75
2022/04/09 02:26:40;;;;;;;1.05;0.65;;;;;;;0.64;100.00;94725.84;5009884;28;24436;-74
2022/04/09 02:29:06;;;;;;;0.95;0.70;;;;;;;0.78;100.00;94734.63;5012405;28;24535;-75
2022/04/09 02:31:34;;;;;;;1.05;0.70;;;;;;;0.83;100.00;94741.22;5013058;28;24826;-75
2022/04/09 02:34:01;;;;;;;0.90;0.57;;;;;;;0.92;100.00;94756.13;5013950;28;24866;-75
2022/04/09 02:36:29;;;;;;;0.70;0.60;;;;;;;0.84;100.00;94767.53;5013750;28;24464;-75
2022/04/09 02:38:55;;;;;;;0.95;0.75;;;;;;;0.81;100.00;94770.19;5013740;28;24520;-75
2022/04/09 02:41:22;;;;;;;1.75;0.93;;;;;;;0.94;100.00;94779.00;5012830;28;25027;-73
2022/04/09 02:43:48;;;;;;;1.88;0.98;;;;;;;0.88;100.00;94787.72;5013545;28;24432;-75
2022/04/09 02:46:16;;;;;;;1.48;1.23;;;;;;;0.81;100.00;94800.78;5013118;28;24491;-75
2022/04/09 02:48:44;;;;;;;1.75;0.98;;;;;;;0.82;100.00;94803.28;5013615;28;24447;-75
2022/04/09 02:51:12;;;;;;;1.10;0.70;;;;;;;0.93;100.00;94813.88;5013299;28;24439;-74
2022/04/09 02:53:38;;;;;;;1.67;1.02;;;;;;;0.84;100.00;94824.44;5013196;28;24440;-74
2022/04/09 02:56:05;;;;;;;1.02;0.60;;;;;;;0.48;100.00;94835.19;5012561;28;24436;-75
2022/04/09 02:58:31;;;;;;;1.10;0.90;;;;;;;0.31;100.00;94836.72;5013100;28;24498;-75
2022/04/09 03:00:58;;;;;;;1.08;0.90;;;;;;;0.29;100.00;94841.03;5012519;28;24456;-75
2022/04/09 03:03:24;;;;;;;2.05;1.25;;;;;;;0.23;100.00;94842.09;5012828;28;24443;-75
2022/04/09 03:05:52;;;;;;;1.63;1.00;;;;;;;0.22;100.00;94856.56;5012961;28;24436;-75
2022/04/09 03:08:19;;;;;;;1.50;1.30;;;;;;;0.23;100.00;94862.47;5012860;28;24448;-74
2022/04/09 03:10:45;;;;;;;1.50;1.20;;;;;;;0.31;100.00;94857.91;5012804;28;24428;-75
2022/04/09 03:13:11;;;;;;;1.50;1.40;;;;;;;0.21;100.00;94861.69;5012775;28;24444;-74
2022/04/09 03:15:38;;;;;;;3.55;1.70;;;;;;;0.19;100.00;94871.94;5012623;28;24444;-75
2022/04/09 03:18:05;;;;;;;2.00;1.70;;;;;;;0.19;100.00;94878.75;5010947;28;24468;-74
2022/04/09 03:20:31;;;;;;;2.33;2.13;;;;;;;0.23;100.00;94883.66;5010617;28;24471;-74
2022/04/09 03:22:59;;;;;;;2.78;2.58;;;;;;;0.21;100.00;94893.06;5010545;28;24996;-74
2022/04/09 03:25:25;;;;;;;6.32;2.58;;;;;;;0.20;100.00;94896.50;5010464;28;24507;-74
2022/04/09 03:27:52;;;;;;;12.30;2.90;;;;;;;0.30;100.00;94899.56;5012495;28;25027;-74
2022/04/09 03:30:18;;;;;;;4.25;2.95;;;;;;;0.27;100.00;94909.84;5012502;28;24440;-74
2022/04/09 03:32:45;;;;;;;6.18;3.65;;;;;;;0.24;100.00;94913.34;5012731;28;24483;-75
2022/04/09 03:35:13;;;;;;;5.07;4.00;;;;;;;0.25;100.00;94921.81;5012086;28;25010;-74
2022/04/09 03:37:40;;;;;;;5.07;4.57;;;;;;;0.21;100.00;94933.00;5012449;28;24429;-74
2022/04/09 03:40:09;;;;;;;5.20;4.47;;;;;;;0.26;100.00;94938.75;5011954;28;25083;-74
2022/04/09 03:42:36;;;;;;;7.53;4.65;;;;;;;0.26;100.00;94943.00;5012268;28;24475;-75
2022/04/09 03:45:02;;;;;;;6.07;4.55;;;;;;;0.22;100.00;94947.38;5012674;28;24439;-75
2022/04/09 03:47:29;;;;;;;5.63;4.40;;;;;;;0.17;100.00;94956.91;5011947;28;24794;-74
2022/04/09 03:49:55;;;;;;;5.28;4.50;;;;;;;0.08;100.00;94965.69;5012344;28;24425;-74
2022/04/09 03:52:22;;;;;;;8.23;4.90;;;;;;;0.06;100.00;94970.00;5012124;28;24438;-74
2022/04/09 03:54:48;;;;;;;7.60;5.03;;;;;;;0.02;100.00;94980.34;5012248;28;24437;-74
2022/04/09 03:57:16;;;;;;;6.35;5.40;;;;;;;0.01;100.00;94989.72;5011808;28;24445;-74
2022/04/09 03:59:43;;;;;;;6.82;5.15;;;;;;;-0.01;100.00;94986.38;5011932;28;24457;-74
2022/04/09 04:02:10;;;;;;;8.52;5.95;;;;;;;0.00;100.00;94990.59;5011837;28;24446;-74
2022/04/09 04:04:37;;;;;;;6.05;5.45;;;;;;;0.01;100.00;94997.34;5012088;28;24447;-74
2022/04/09 04:07:04;;;;;;;7.83;6.00;;;;;;;0.03;100.00;94987.94;5011926;28;24838;-74
2022/04/09 04:09:31;;;;;;;5.95;5.32;;;;;;;0.03;100.00;94995.56;5011299;28;24444;-73
2022/04/09 04:11:57;;;;;;;7.20;5.40;;;;;;;-0.02;100.00;94987.25;5011779;28;24436;-74
2022/04/09 04:14:26;;;;;;;6.40;5.72;;;;;;;-0.05;100.00;95006.00;5011927;28;24527;-74
2022/04/09 04:16:52;;;;;;;7.85;5.60;;;;;;;-0.03;100.00;95011.06;5011663;28;24449;-74
2022/04/09 04:19:19;;;;;;;7.47;5.63;;;;;;;-0.08;100.00;95007.81;5011734;28;24443;-74
2022/04/09 04:21:45;;;;;;;8.82;5.70;;;;;;;0.00;100.00;95016.06;5011122;28;24452;-75
2022/04/09 04:24:11;;;;;;;9.35;5.60;;;;;;;-0.06;100.00;95023.88;5012059;28;24441;-75
2022/04/09 04:26:38;;;;;;;8.60;5.60;;;;;;;-0.09;100.00;95034.16;5011441;28;24495;-75
2022/04/09 04:29:04;;;;;;;7.32;4.95;;;;;;;-0.13;100.00;95045.34;5011572;28;24460;-75
2022/04/09 04:31:32;;;;;;;7.43;4.93;;;;;;;-0.14;100.00;95039.41;5011380;28;24484;-75
2022/04/09 04:33:59;;;;;;;7.78;5.30;;;;;;;-0.12;100.00;95049.53;5011265;28;24443;-75
2022/04/09 04:36:25;;;;;;;8.52;5.18;;;;;;;-0.12;100.00;95054.63;5011130;28;24443;-74
2022/04/09 04:38:51;;;;;;;5.63;4.40;;;;;;;-0.10;100.00;95060.50;5011457;28;24440;-75
2022/04/09 04:41:18;;;;;;;5.18;4.68;;;;;;;-0.14;100.00;95061.50;5011220;28;25001;-75
2022/04/09 04:43:48;;;;;;;7.35;5.00;;;;;;;-0.14;100.00;95069.97;5011508;28;24444;-75
2022/04/09 04:46:14;;;;;;;5.45;4.90;;;;;;;-0.12;100.00;95072.44;5010689;28;24985;-75
2022/04/09 04:48:42;;;;;;;5.60;4.32;;;;;;;-0.17;100.00;95069.22;5011092;28;24494;-75
2022/04/09 04:51:09;;;;;;;6.68;4.60;;;;;;;-0.20;100.00;95071.88;5010505;28;24483;-75
2022/04/09 04:53:35;;;;;;;11.15;6.20;;;;;;;-0.22;100.00;95076.16;5011319;28;24436;-74
2022/04/09 04:56:02;;;;;;;9.23;6.78;;;;;;;-0.18;100.00;95088.75;5011037;28;24443;-73
2022/04/09 04:58:28;;;;;;;7.50;5.95;;;;;;;-0.17;100.00;95087.03;5010860;28;24823;-73
2022/04/09 05:00:55;;;;;;;11.13;7.00;;;;;;;-0.20;100.00;95094.75;5010788;28;24459;-73
2022/04/09 05:03:21;;;;;;;5.35;4.60;;;;;;;-0.21;100.00;95099.03;5010850;28;24459;-73
2022/04/09 05:05:49;;;;;;;6.78;4.82;;;;;;;-0.17;100.00;95099.75;5010591;28;24460;-74
2022/04/09 05:08:15;;;;;;;9.98;4.72;;;;;;;-0.22;100.00;95104.16;5010711;28;25390;-74
2022/04/09 05:10:42;;;;;;;6.40;5.05;;;;;;;-0.13;100.00;95102.16;5042337;23;24483;-73
2022/04/09 05:13:08;;;;;;;6.17;4.50;;;;;;;-0.20;100.00;95107.50;5030363;28;24447;-73
2022/04/09 05:15:35;;;;;;;10.77;4.87;;;;;;;-0.21;100.00;95114.28;5030370;28;24995;-72
2022/04/09 05:18:01;;;;;;;7.57;4.95;;;;;;;-0.12;100.00;95123.34;5030510;28;24416;-73
2022/04/09 05:20:28;;;;;;;5.78;4.68;;;;;;;-0.22;100.00;95127.91;5039390;28;24490;-72
2022/04/09 05:22:56;;;;;;;6.13;4.82;;;;;;;-0.15;100.00;95128.53;5030070;28;25014;-72
2022/04/09 05:25:23;;;;;;;5.65;4.85;;;;;;;-0.19;100.00;95134.59;5029935;28;24988;-73
2022/04/09 05:27:50;;;;;;;7.65;4.80;;;;;;;-0.19;100.00;95142.22;5030032;28;24439;-73
2022/04/09 05:30:17;;;;;;;6.13;4.20;;;;;;;-0.17;100.00;95148.13;5029821;28;24519;-72
2022/04/09 05:32:44;;;;;;;8.32;4.70;;;;;;;-0.22;100.00;95155.03;5030415;28;24535;-72
2022/04/09 05:35:12;;;;;;;7.30;4.88;;;;;;;-0.20;100.00;95166.03;5029650;28;25001;-73
2022/04/09 05:37:44;;;;;;;7.28;4.80;;;;;;;-0.19;100.00;95167.69;5029756;28;24442;-69
2022/04/09 05:40:13;;;;;;;5.55;4.45;;;;;;;-0.12;100.00;95181.88;5029563;28;24677;-70
2022/04/09 05:42:40;;;;;;;7.10;4.45;;;;;;;-0.14;100.00;95186.22;5029856;28;24493;-70
2022/04/09 05:45:07;;;;;;;6.27;4.40;;;;;;;-0.19;100.00;95181.22;5029528;28;24482;-70
2022/04/09 05:47:33;;;;;;;8.48;4.60;;;;;;;-0.20;100.00;95189.75;5029556;28;24431;-70
2022/04/09 05:50:00;;;;;;;7.07;5.05;;;;;;;-0.16;100.00;95198.13;5029600;28;24447;-71
2022/04/09 05:52:26;;;;;;;6.65;4.97;;;;;;;-0.16;100.00;95195.59;5029494;28;24802;-71
2022/04/09 05:54:53;;;;;;;8.95;5.40;;;;;;;0.02;100.00;95210.31;5029986;28;25018;-70
2022/04/09 05:57:21;;;;;;;6.43;5.18;;;;;;;0.08;100.00;95215.22;5029741;28;24443;-71
2022/04/09 05:59:48;;;;;;;11.73;6.85;;;;;;;0.06;100.00;95206.78;5029604;28;24473;-71
2022/04/09 06:02:14;;;;;;;9.48;6.20;;;;;;;0.05;100.00;95210.22;5031300;28;24452;-71
2022/04/09 06:04:41;;;;;;;8.30;6.22;;;;;;;0.15;100.00;95224.34;5034179;28;24444;-71
2022/04/09 06:07:09;;;;;;;6.38;4.97;;;;;;;0.12;100.00;95224.41;5033600;28;24493;-71
2022/04/09 06:09:36;;;;;;;6.57;5.03;;;;;;;0.19;100.00;95235.25;5033828;28;24450;-70
2022/04/09 06:12:05;;;;;;;7.45;5.18;;;;;;;0.21;100.00;95239.41;5033855;28;24494;-70
2022/04/09 06:14:32;;;;;;;6.78;5.00;;;;;;;0.25;100.00;95240.13;5033499;28;24449;-71
2022/04/09 06:16:59;;;;;;;11.95;5.68;;;;;;;0.36;100.00;95255.09;5033781;28;24798;-70
2022/04/09 06:19:27;;;;;;;8.27;5.00;;;;;;;0.40;100.00;95257.50;5033684;28;24505;-71
2022/04/09 06:21:53;;;;;;;5.88;4.70;;;;;;;0.33;100.00;95261.09;5033558;28;24458;-70
2022/04/09 06:24:20;;;;;;;7.63;4.57;;;;;;;0.36;100.00;95262.72;5033330;28;24438;-70
2022/04/09 06:26:46;;;;;;;8.07;4.75;;;;;;;0.31;100.00;95265.44;5033439;28;24431;-70
2022/04/09 06:29:13;;;;;;;7.10;4.50;;;;;;;0.34;100.00;95270.44;5033232;28;24455;-70
2022/04/09 06:31:40;;;;;;;5.22;4.45;;;;;;;0.31;100.00;95274.78;5033475;28;24439;-70
2022/04/09 06:34:07;;;;;;;6.53;4.20;;;;;;;0.40;100.00;95279.59;5033189;28;24844;-70
2022/04/09 06:36:33;;;;;;;7.75;4.60;;;;;;;0.37;100.00;95279.69;5032908;28;24785;-70
2022/04/09 06:39:00;;;;;;;9.32;4.43;;;;;;;0.39;100.00;95283.84;5033159;28;25042;-70
2022/04/09 06:41:28;;;;;;;6.28;3.90;;;;;;;0.50;100.00;95283.53;5032795;28;25000;-71
2022/04/09 06:43:55;;;;;;;7.22;4.10;;;;;;;0.52;100.00;95283.47;5033113;28;25193;-71
2022/04/09 06:46:21;;;;;;;6.70;4.33;;;;;;;0.56;100.00;95285.91;5033024;28;25032;-70
2022/04/09 06:48:49;;;;;;;6.05;4.15;;;;;;;0.57;100.00;95286.72;5033308;28;24439;-70
2022/04/09 06:51:15;;;;;;;8.35;4.60;;;;;;;0.44;100.00;95281.16;5033141;28;24443;-70
2022/04/09 06:53:42;;;;;;;6.65;4.10;;;;;;;0.54;100.00;95289.34;5033004;28;25008;-71
2022/04/09 06:56:09;;;;;;;9.57;4.57;;;;;;;0.51;100.00;95297.91;5032952;28;24443;-71
2022/04/09 06:58:35;;;;;;;6.30;4.07;;;;;;;0.54;100.00;95295.28;5032891;28;24463;-70
2022/04/09 07:01:02;;;;;;;6.55;4.00;;;;;;;0.45;100.00;95286.22;5032776;28;25044;-71
2022/04/09 07:03:29;;;;;;;9.40;4.93;;;;;;;0.60;100.00;95295.09;5032925;28;24431;-71
2022/04/09 07:05:57;;;;;;;6.05;4.10;;;;;;;0.69;100.00;95291.41;5033038;28;24844;-71
2022/04/09 07:08:23;;;;;;;16.80;5.10;;;;;;;0.49;100.00;95297.16;5032960;28;24801;-71
2022/04/09 07:10:50;;;;;;;11.75;5.22;;;;;;;0.42;100.00;95295.69;5032346;28;25019;-71
2022/04/09 07:13:16;;;;;;;8.98;5.45;;;;;;;0.46;100.00;95303.16;5031763;28;24995;-71
2022/04/09 07:15:43;;;;;;;7.30;4.22;;;;;;;0.65;100.00;95305.97;5032522;28;25034;-71
2022/04/09 07:18:09;;;;;;;10.88;4.90;;;;;;;0.82;100.00;95309.72;5033122;28;24474;-70
2022/04/09 07:20:36;;;;;;;9.75;5.13;;;;;;;0.79;100.00;95314.91;5032470;28;24450;-70
2022/04/09 07:23:04;;;;;;;13.82;5.28;;;;;;;0.78;100.00;95314.09;5032256;28;24448;-70
2022/04/09 07:25:31;;;;;;;7.60;4.60;;;;;;;1.00;100.00;95315.91;5032387;28;24436;-71
2022/04/09 07:27:57;;;;;;;10.95;4.55;;;;;;;0.82;100.00;95314.81;5032776;28;24446;-70
2022/04/09 07:30:26;;;;;;;7.80;4.72;;;;;;;0.87;100.00;95318.88;5031913;28;24949;-71
2022/04/09 07:32:56;;;;;;;11.10;4.72;;;;;;;0.96;100.00;95327.94;5032445;28;24845;-70
2022/04/09 07:35:22;;;;;;;12.13;4.50;;;;;;;0.82;100.00;95330.13;5032419;28;24482;-71
2022/04/09 07:37:51;;;;;;;11.70;4.53;;;;;;;0.95;100.00;95327.09;5032330;28;24539;-70
2022/04/09 07:40:21;;;;;;;8.13;3.90;;;;;;;1.04;100.00;95338.75;5032113;28;25048;-70
2022/04/09 07:42:48;;;;;;;8.75;3.92;;;;;;;1.40;100.00;95346.03;5030332;28;24443;-71
2022/04/09 07:45:15;;;;;;;8.70;4.10;;;;;;;1.56;100.00;95347.19;5032564;28;24508;-71
2022/04/09 07:47:43;;;;;;;8.75;3.63;;;;;;;1.59;100.00;95352.19;5032458;28;24432;-71
2022/04/09 07:50:11;;;;;;;7.03;3.97;;;;;;;1.77;100.00;95353.25;5031528;28;24444;-72
2022/04/09 07:52:39;;;;;;;9.40;4.03;;;;;;;1.82;100.00;95358.22;5031833;28;24451;-72
2022/04/09 07:55:06;;;;;;;7.07;3.47;;;;;;;1.72;100.00;95359.44;5032375;28;24489;-72
2022/04/09 07:57:34;;;;;;;7.60;3.45;;;;;;;1.88;100.00;95368.22;5032074;28;24442;-71
2022/04/09 08:00:01;;;;;;;8.30;3.80;;;;;;;1.77;100.00;95363.47;5031592;28;24873;-71
2022/04/09 08:02:27;;;;;;;7.38;3.25;;;;;;;2.00;100.00;95382.25;5031496;28;25000;-71
2022/04/09 08:04:53;;;;;;;7.55;3.40;;;;;;;1.88;100.00;95379.25;5031527;28;24485;-71
2022/04/09 08:07:20;;;;;;;8.85;3.65;;;;;;;1.51;100.00;95382.25;5032072;28;24443;-72
2022/04/09 08:09:46;;;;;;;6.93;3.03;;;;;;;1.45;100.00;95390.94;5031582;28;24443;-72
2022/04/09 08:12:13;;;;;;;10.35;3.60;;;;;;;1.26;100.00;95402.66;5031364;28;24797;-72
2022/04/09 08:14:41;;;;;;;6.13;3.42;;;;;;;1.27;100.00;95403.47;5031768;28;24478;-64
2022/04/09 08:17:08;;;;;;;9.73;3.90;;;;;;;1.43;100.00;95404.63;5031513;28;24532;-70
2022/04/09 08:19:35;;;;;;;9.32;3.08;;;;;;;1.44;100.00;95403.75;5031339;28;24439;-70
2022/04/09 08:22:02;;;;;;;7.90;3.25;;;;;;;1.36;100.00;95410.81;5031094;28;25005;-70
2022/04/09 08:24:28;;;;;;;8.20;3.30;;;;;;;1.72;100.00;95407.94;5031470;28;24802;-70
2022/04/09 08:26:55;;;;;;;9.93;3.65;;;;;;;1.62;100.00;95422.72;5031315;28;24482;-70
2022/04/09 08:29:21;;;;;;;12.52;3.47;;;;;;;1.65;100.00;95414.97;5031402;28;24436;-70
2022/04/09 08:31:49;;;;;;;11.38;3.45;;;;;;;1.77;100.00;95424.75;5030942;28;24435;-70
2022/04/09 08:34:17;;;;;;;6.43;3.50;;;;;;;1.60;100.00;95435.53;5031088;28;24432;-70
2022/04/09 08:36:44;;;;;;;11.20;3.67;;;;;;;1.71;100.00;95430.09;5031327;28;24986;-70
2022/04/09 08:39:10;;;;;;;7.25;3.45;;;;;;;1.90;100.00;95436.22;5031041;28;24444;-70
2022/04/09 08:41:38;;;;;;;11.43;3.85;;;;;;;1.92;100.00;95437.00;5030779;28;24992;-70
2022/04/09 08:44:06;;;;;;;9.35;3.17;;;;;;;1.63;100.00;95442.25;5031125;28;24528;-69
2022/04/09 08:46:34;;;;;;;14.45;3.72;;;;;;;2.12;100.00;95445.72;5030962;28;24436;-70
2022/04/09 08:49:04;;;;;;;6.93;3.43;;;;;;;2.41;100.00;95447.22;5030977;28;24439;-70
2022/04/09 08:51:31;;;;;;;6.68;3.47;;;;;;;2.38;100.00;95449.91;5030802;28;24456;-70
2022/04/09 08:53:58;;;;;;;8.55;3.47;;;;;;;2.35;100.00;95457.66;5030980;28;24432;-70
2022/04/09 08:56:25;;;;;;;4.95;3.28;;;;;;;2.16;100.00;95465.16;5030857;28;24439;-70
2022/04/09 08:58:51;;;;;;;8.32;3.40;;;;;;;1.77;100.00;95462.22;5030762;28;24442;-70
2022/04/09 09:01:21;;;;;;;7.75;3.10;;;;;;;1.41;100.00;95460.84;5030414;28;24865;-70
2022/04/09 09:03:47;;;;;;;9.13;3.90;;;;;;;1.59;100.00;95468.75;5030926;28;24568;-70
2022/04/09 09:06:27;;;;;;;7.27;2.93;;;;;;;1.48;100.00;95471.66;5030841;28;24464;-70
2022/04/09 09:08:54;;;;;;;7.03;3.17;;;;;;;1.76;100.00;95470.78;5030646;28;24530;-70
2022/04/09 09:11:20;;;;;;;10.25;4.00;;;;;;;1.81;100.00;95479.94;5030260;28;24432;-71
2022/04/09 09:13:48;;;;;;;10.20;3.60;;;;;;;1.82;100.00;95473.97;5030476;28;24572;-70
2022/04/09 09:16:26;;;;;;;7.05;3.30;;;;;;;1.84;100.00;95479.00;5030312;28;24485;-70
2022/04/09 09:18:54;;;;;;;7.93;3.58;;;;;;;1.74;100.00;95478.47;5037907;28;24428;-70
2022/04/09 09:21:23;;;;;;;8.55;3.47;;;;;;;1.98;100.00;95486.22;5047624;28;24951;-71
2022/04/09 09:23:52;;;;;;;10.52;3.17;;;;;;;2.09;100.00;95479.03;5030446;28;24436;-72
2022/04/09 09:26:23;;;;;;;9.50;3.10;;;;;;;2.13;100.00;95480.59;5030227;28;24854;-71
2022/04/09 09:28:57;;;;;;;7.82;3.78;;;;;;;2.37;100.00;95484.00;5030364;28;24438;-71
2022/04/09 09:31:40;;;;;;;9.60;3.38;;;;;;;2.15;100.00;95491.56;5029717;28;24443;-71
2022/04/09 09:34:12;;;;;;;7.15;2.90;;;;;;;2.47;100.00;95492.19;5029998;28;25046;-71
2022/04/09 09:36:40;;;;;;;5.53;2.90;;;;;;;2.31;100.00;95485.06;5029429;28;24801;-71
2022/04/09 09:39:09;;;;;;;11.10;3.60;;;;;;;2.24;100.00;95495.53;5029951;28;24809;-71
2022/04/09 09:41:46;;;;;;;7.68;3.08;;;;;;;2.32;100.00;95502.03;5029672;28;24443;-72
2022/04/09 09:44:12;;;;;;;8.13;3.45;;;;;;;2.35;100.00;95508.78;5030674;28;24443;-72
2022/04/09 09:46:39;;;;;;;10.23;3.35;;;;;;;2.63;100.00;95501.81;5030169;28;24540;-71
2022/04/09 09:49:05;;;;;;;9.23;3.42;;;;;;;2.38;100.00;95506.97;5013434;28;25004;-72
2022/04/09 09:51:32;;;;;;;8.77;3.60;;;;;;;2.57;100.00;95511.41;5030143;28;24447;-71
2022/04/09 09:54:06;;;;;;;7.95;3.88;;;;;;;2.74;100.00;95514.19;5030348;28;24431;-72
2022/04/09 09:56:36;;;;;;;7.83;3.30;;;;;;;2.36;100.00;95521.50;5030183;28;24443;-71
2022/04/09 09:59:04;;;;;;;8.48;3.17;;;;;;;2.42;100.00;95520.47;5029746;28;25107;-72
2022/04/09 10:01:31;;;;;;;7.78;2.95;;;;;;;2.62;100.00;95522.31;5029855;28;24443;-72
2022/04/09 10:03:59;;;;;;;9.48;3.58;;;;;;;2.64;100.00;95518.81;5030168;28;24455;-73
2022/04/09 10:06:26;;;;;;;10.30;5.45;;;;;;;2.83;100.00;95518.97;5030770;28;24498;-72
2022/04/09 10:08:52;;;;;;;9.32;4.85;;;;;;;3.42;100.00;95517.63;5030236;28;24439;-72
2022/04/09 10:11:20;;;;;;;10.88;4.75;;;;;;;3.69;100.00;95514.88;5030185;28;24436;-72
2022/04/09 10:13:48;;;;;;;8.80;3.83;;;;;;;3.76;100.00;95522.25;5029994;28;24459;-71
2022/04/09 10:16:20;;;;;;;9.07;4.72;;;;;;;3.84;100.00;95533.03;5029671;28;24991;-72
2022/04/09 10:18:49;;;;;;;8.38;3.45;;;;;;;3.67;100.00;95529.47;5030128;28;24485;-72
2022/04/09 10:21:16;;;;;;;11.32;4.93;;;;;;;3.97;100.00;95530.81;5013443;28;25015;-72
2022/04/09 10:23:44;;;;;;;18.40;3.50;;;;;;;4.24;100.00;95530.56;5029468;28;24985;-72
2022/04/09 10:26:12;;;;;;;11.60;3.13;;;;;;;4.24;100.00;95525.44;5029659;28;24442;-72
2022/04/09 10:28:40;;;;;;;7.88;3.33;;;;;;;4.18;100.00;95528.25;5029820;28;24443;-72
2022/04/09 10:31:37;;;;;;;8.63;3.72;;;;;;;3.84;100.00;95529.63;5029805;28;24441;-72
2022/04/09 10:34:06;;;;;;;12.50;3.97;;;;;;;4.23;100.00;95532.31;5029882;28;24696;-72
2022/04/09 10:37:02;;;;;;;8.67;3.50;;;;;;;4.49;100.00;95528.63;5029746;28;24447;-72
2022/04/09 10:39:41;;;;;;;6.18;2.85;;;;;;;4.25;100.00;95530.50;5029748;28;24890;-72
2022/04/09 10:42:09;;;;;;;7.85;3.53;;;;;;;3.97;100.00;95533.38;5030175;28;24478;-79
2022/04/09 10:44:52;;;;;;;10.73;3.97;;;;;;;4.16;100.00;95533.44;5029567;28;24443;-74
2022/04/09 10:47:20;;;;;;;10.05;3.65;;;;;;;4.04;100.00;95531.38;5030056;28;24462;-70
2022/04/09 10:50:11;;;;;;;10.30;3.72;;;;;;;3.56;100.00;95540.13;5031999;28;24554;-74
2022/04/09 10:52:39;;;;;;;7.13;3.90;;;;;;;3.83;100.00;95530.53;5033645;28;24537;-74
2022/04/09 10:55:23;;;;;;;7.93;3.05;;;;;;;3.80;100.00;95526.34;5033243;28;24444;-74
2022/04/09 10:57:52;;;;;;;7.77;2.80;;;;;;;4.11;100.00;95525.94;5033590;28;24542;-74
2022/04/09 11:00:33;;;;;;;6.60;3.00;;;;;;;4.26;100.00;95515.94;5032905;28;24431;-74
2022/04/09 11:03:31;;;;;;;13.87;3.67;;;;;;;4.33;100.00;95522.47;5033060;28;24452;-74
2022/04/09 11:06:43;;;;;;;4.93;2.50;;;;;;;3.90;100.00;95518.31;5013772;28;24420;-74
2022/04/09 11:09:09;;;;;;;8.52;2.65;;;;;;;3.75;100.00;95514.66;5038994;22;24523;-73
2022/04/09 11:11:37;;;;;;;8.70;3.20;;;;;;;4.05;100.00;95515.94;5025840;28;24455;-72
2022/04/09 11:14:03;;;;;;;9.98;2.95;;;;;;;3.87;100.00;95517.53;5022783;28;24467;-71
2022/04/09 11:16:37;;;;;;;7.40;2.50;;;;;;;3.98;100.00;95516.28;5022295;28;24999;-71
2022/04/09 11:19:05;;;;;;;6.57;2.47;;;;;;;4.43;98.74;95515.25;5023602;28;24510;-72
2022/04/09 11:21:31;;;;;;;6.40;2.88;;;;;;;4.46;99.92;95515.94;5031482;28;24498;-72
2022/04/09 11:24:08;;;;;;;5.65;2.78;;;;;;;4.43;100.00;95523.75;5030237;28;24556;-72
2022/04/09 11:26:34;;;;;;;6.80;2.65;;;;;;;4.10;100.00;95521.72;5028036;28;24514;-72
2022/04/09 11:29:09;;;;;;;12.15;3.03;;;;;;;3.54;100.00;95499.22;5028686;28;24435;-73
2022/04/09 11:31:45;;;;;;;13.73;3.03;;;;;;;3.68;100.00;95514.03;5031487;28;24505;-72
2022/04/09 11:34:13;;;;;;;9.05;2.70;;;;;;;4.10;100.00;95510.63;5032132;28;24980;-72
2022/04/09 11:36:40;;;;;;;11.43;3.27;;;;;;;3.86;100.00;95515.88;5032395;28;24614;-72